ブエノスアイレス/エセイサ の空港の天気 - METARとTAF

エセイサ国際空港 ( SAEZ / EZE ) - アルゼンチン ブエノスアイレス州、Ezeiza
飛行場実況気象(Metar)
観測時間10/20 22:00 ART (10/21 01:00 UTC)
風向・風速南東 4m/s
視程10km以上
天気現象
なし
気温10℃
湿度76%
気圧1027hPa
METARSAEZ 210100Z 14008KT CAVOK 10/06 Q1027 NOSIG
過去の天気等 Google飛行場航空写真 Wunderground天気予報

過去48時間のMETAR

飛行場予報(TAF)
発表時間: 10/20 20:00 ART (10/20 23:00 UTC)
予報対象時間: 20日21時 ART ~ 21日21時 ART
風向・風速東南東 6m/s
視程10km以上
なし
21日7時 ART ~ 21日9時 ART に徐々に
風向・風速東 8m/s 瞬間風速 13m/s
視程10km以上
全天の8割程度の雲 雲底高度 910m
21日15時 ART ~ 21日18時 ART に一時的に
視程8000m
天気現象
少しの雲 雲底高度 610m
全天の8割程度の雲 雲底高度 910m
21日18時 ART ~ 21日21時 ART に徐々に
視程6000m
天気現象しゅう雨
全天の4割程度の雲 雲底高度 610m
全天の8割程度の雲 雲底高度 910m
少しの塔状積雲 雲底高度 1070m
21日20時 ART ~ 21日21時 ART に徐々に
視程5000m
天気現象雷雨
全天の8割程度の雲 雲底高度 370m
少しの積乱雲 雲底高度 1070m
TAF SAEZ 202300Z 2100/2124 11012KT CAVOK TX18/2118Z TN08/2110Z
BECMG 2110/2112 09015G25KT 9999 BKN030
TEMPO 2118/2121 8000 RA FEW020 BKN030
BECMG 2121/2124 6000 SHRA SCT020 BKN030 FEW035TCU
BECMG 2123/2124 5000 TSRA BKN012 FEW035CB